Time;durP1;ratioP1;P1;durP2;ratioP2;P2;SDS_P1;SDS_P2;PMS_P1;PMS_P2;Temp;Humidity;BMP_temperature;BMP_pressure;BME280_temperature;BME280_humidity;BME280_pressure;Samples;Min_cycle;Max_cycle;Signal;HPM_P1;HPM_P2
2022/04/20 00:00:10;;;;;;;5.45;2.10;;;;;;;6.31;63.24;101880.31;2071415;28;44051;-71
2022/04/20 00:01:12;;;;;;;4.03;2.40;;;;;;;6.37;63.85;101880.41;2071309;28;45361;-71
2022/04/20 00:02:13;;;;;;;10.55;2.80;;;;;;;6.31;63.63;101883.84;2071568;28;45230;-71
2022/04/20 00:03:15;;;;;;;5.43;2.40;;;;;;;6.31;63.86;101872.34;2071630;28;46700;-71
2022/04/20 00:04:17;;;;;;;7.18;2.60;;;;;;;6.31;64.36;101880.31;2071948;28;43236;-71
2022/04/20 00:05:18;;;;;;;5.13;2.15;;;;;;;6.32;63.57;101874.13;2071325;28;44424;-71
2022/04/20 00:06:20;;;;;;;4.07;2.40;;;;;;;6.36;64.46;101883.03;2071449;28;46491;-71
2022/04/20 00:07:22;;;;;;;4.93;2.25;;;;;;;6.31;63.36;101875.88;2078578;28;44721;-71
2022/04/20 00:08:24;;;;;;;4.03;2.58;;;;;;;6.33;63.52;101883.00;2078910;28;44062;-72
2022/04/20 00:09:26;;;;;;;4.25;2.45;;;;;;;6.29;64.68;101876.75;2069980;28;40294;-71
2022/04/20 00:10:29;;;;;;;4.82;2.60;;;;;;;6.23;64.64;101877.59;2070984;28;45465;-71
2022/04/20 00:11:31;;;;;;;3.10;2.08;;;;;;;6.22;63.75;101878.44;2071369;28;45152;-71
2022/04/20 00:12:32;;;;;;;5.50;2.17;;;;;;;6.20;64.48;101879.31;2071593;28;44235;-71
2022/04/20 00:13:35;;;;;;;3.33;2.17;;;;;;;6.18;64.38;101881.09;2071212;28;45595;-71
2022/04/20 00:14:37;;;;;;;3.28;2.10;;;;;;;6.18;64.89;101879.31;2078839;28;45470;-71
2022/04/20 00:15:40;;;;;;;4.32;2.28;;;;;;;6.15;64.53;101871.28;2078728;28;20038;-71
2022/04/20 00:16:42;;;;;;;5.00;2.38;;;;;;;6.13;64.38;101882.78;2071841;28;46958;-71
2022/04/20 00:17:43;;;;;;;5.22;2.25;;;;;;;6.06;64.19;101872.06;2071368;28;30412;-71
2022/04/20 00:18:45;;;;;;;6.43;2.60;;;;;;;6.10;65.64;101880.97;2074760;28;48071;-71
2022/04/20 00:19:47;;;;;;;2.83;2.00;;;;;;;6.08;65.67;101875.66;2079546;28;20041;-71
2022/04/20 00:20:48;;;;;;;3.50;2.40;;;;;;;6.09;65.97;101877.44;2070927;28;43877;-70
2022/04/20 00:21:52;;;;;;;5.57;2.55;;;;;;;6.07;65.01;101873.88;2072404;28;20038;-71
2022/04/20 00:22:54;;;;;;;3.85;2.40;;;;;;;6.02;65.40;101875.59;2071826;28;20092;-71
2022/04/20 00:23:56;;;;;;;3.95;2.42;;;;;;;6.04;65.60;101879.16;2062698;28;45360;-71
2022/04/20 00:24:58;;;;;;;5.38;2.33;;;;;;;6.06;66.08;101877.41;2071117;28;44671;-71
2022/04/20 00:26:03;;;;;;;4.15;2.05;;;;;;;6.06;65.00;101873.84;2071417;28;44141;-71
2022/04/20 00:27:05;;;;;;;3.72;2.10;;;;;;;6.05;66.35;101877.41;2070640;28;44459;-71
2022/04/20 00:28:06;;;;;;;3.67;2.22;;;;;;;6.05;65.46;101880.06;2069766;28;46011;-71
2022/04/20 00:29:08;;;;;;;6.50;2.17;;;;;;;6.06;65.29;101876.50;2070204;28;43747;-71
2022/04/20 00:30:11;;;;;;;4.20;2.33;;;;;;;6.07;66.24;101879.19;2070851;28;45306;-71
2022/04/20 00:31:13;;;;;;;4.47;2.53;;;;;;;6.03;65.51;101874.72;2072031;28;20038;-71
2022/04/20 00:32:14;;;;;;;3.17;2.05;;;;;;;5.99;66.09;101879.97;2070995;28;44235;-71
2022/04/20 00:33:16;;;;;;;3.88;2.10;;;;;;;5.94;65.29;101882.56;2071721;28;21842;-71
2022/04/20 00:34:18;;;;;;;4.53;2.40;;;;;;;5.96;66.23;101878.19;2070765;28;46000;-71
2022/04/20 00:35:20;;;;;;;4.93;2.50;;;;;;;5.98;66.05;101876.44;2063337;28;20153;-71
2022/04/20 00:36:22;;;;;;;3.30;2.10;;;;;;;5.97;65.49;101879.97;2071475;28;20173;-71
2022/04/20 00:37:24;;;;;;;6.43;2.22;;;;;;;5.92;65.65;101878.97;2062923;28;27389;-71
2022/04/20 00:38:25;;;;;;;3.97;2.20;;;;;;;5.89;65.50;101881.63;2062353;28;47261;-71
2022/04/20 00:39:27;;;;;;;4.72;2.38;;;;;;;5.91;66.93;101883.41;2071259;28;20841;-71
2022/04/20 00:40:29;;;;;;;3.17;2.20;;;;;;;5.89;66.60;101884.28;2078871;28;37336;-71
2022/04/20 00:41:31;;;;;;;3.70;2.20;;;;;;;5.86;66.75;101881.56;2070922;28;20046;-71
2022/04/20 00:42:40;;;;;;;4.43;2.38;;;;;;;5.88;66.68;101880.69;2062749;28;45621;-71
2022/04/20 00:43:42;;;;;;;4.07;2.00;;;;;;;5.86;66.22;101885.13;2071358;28;47434;-71
2022/04/20 00:44:44;;;;;;;6.25;2.58;;;;;;;5.90;66.90;101883.38;2078241;28;22571;-71
2022/04/20 00:45:46;;;;;;;4.75;2.40;;;;;;;5.87;67.39;101881.59;2070455;28;45259;-71
2022/04/20 00:46:48;;;;;;;3.60;1.92;;;;;;;5.87;66.38;101891.34;2070583;28;42175;-71
2022/04/20 00:47:52;;;;;;;4.53;1.90;;;;;;;5.84;66.47;101885.97;2070873;28;44561;-71
2022/04/20 00:48:55;;;;;;;4.38;2.42;;;;;;;5.83;66.89;101884.19;2071019;28;20035;-71
2022/04/20 00:49:58;;;;;;;4.75;2.20;;;;;;;5.86;66.99;101886.91;2063023;28;20249;-71
2022/04/20 00:51:00;;;;;;;5.85;2.28;;;;;;;5.77;66.80;101879.69;2063380;28;20863;-72
2022/04/20 00:52:04;;;;;;;5.63;2.45;;;;;;;5.76;67.19;101891.22;2071626;28;20124;-71
2022/04/20 00:53:06;;;;;;;5.22;2.42;;;;;;;5.71;67.26;101883.19;2062085;28;43733;-71
2022/04/20 00:54:11;;;;;;;3.70;2.40;;;;;;;5.77;67.07;101889.44;2062556;28;20046;-71
2022/04/20 00:55:13;;;;;;;3.53;2.40;;;;;;;5.75;67.86;101886.75;2063558;28;20955;-71
2022/04/20 00:56:15;;;;;;;2.40;1.90;;;;;;;5.72;67.21;101884.97;2064080;28;20046;-71
2022/04/20 00:57:17;;;;;;;4.45;2.58;;;;;;;5.72;68.36;101886.72;2071146;28;38482;-72
2022/04/20 00:58:19;;;;;;;6.25;2.25;;;;;;;5.72;68.83;101887.63;2063373;28;20483;-71
2022/04/20 00:59:25;;;;;;;4.97;2.53;;;;;;;5.64;67.42;101876.00;2054616;28;33604;-71
2022/04/20 01:00:29;;;;;;;5.93;2.20;;;;;;;5.65;67.23;101885.78;2063278;28;40194;-71
2022/04/20 01:01:31;;;;;;;3.47;2.35;;;;;;;5.69;68.48;101884.03;2070446;28;20046;-71
2022/04/20 01:02:33;;;;;;;6.65;2.50;;;;;;;5.72;68.16;101884.97;2062640;28;46223;-71
2022/04/20 01:03:36;;;;;;;5.55;2.75;;;;;;;5.70;68.39;101878.72;2061853;28;45409;-71
2022/04/20 01:04:52;;;;;;;3.40;2.30;;;;;;;5.71;68.71;101883.19;2063399;28;20157;-71
2022/04/20 01:06:17;;;;;;;5.72;2.47;;;;;;;5.65;68.02;101879.53;2062684;28;20106;-71
2022/04/20 01:07:41;;;;;;;4.72;2.00;;;;;;;5.67;68.67;101884.03;2059791;28;20863;-72
2022/04/20 01:08:51;;;;;;;3.20;2.33;;;;;;;5.60;68.64;101887.47;2064234;28;20144;-71
2022/04/20 01:10:14;;;;;;;3.90;2.40;;;;;;;5.59;68.68;101882.13;2068121;28;20042;-71
2022/04/20 01:11:30;;;;;;;6.00;2.00;;;;;;;5.59;69.31;101891.00;2063915;28;20042;-71
2022/04/20 01:12:45;;;;;;;5.05;2.40;;;;;;;5.65;68.28;101883.13;2071348;28;20062;-71
2022/04/20 01:14:10;;;;;;;2.78;2.25;;;;;;;5.59;69.47;101896.31;2059169;28;20870;-72
2022/04/20 01:15:33;;;;;;;3.60;2.22;;;;;;;5.57;68.13;101892.75;2061322;28;20061;-71
2022/04/20 01:16:53;;;;;;;3.38;2.38;;;;;;;5.55;68.87;101892.72;2071144;28;20051;-71
2022/04/20 01:18:16;;;;;;;3.05;2.10;;;;;;;5.51;68.98;101895.31;2064018;28;20129;-71
2022/04/20 01:19:39;;;;;;;2.35;1.73;;;;;;;5.56;68.99;101896.25;2065733;28;20985;-71
2022/04/20 01:21:01;;;;;;;5.55;2.40;;;;;;;5.50;68.76;101898.84;2070772;28;20042;-71
2022/04/20 01:22:14;;;;;;;6.55;2.13;;;;;;;5.50;68.96;101890.88;2071912;28;20042;-69
2022/04/20 01:23:30;;;;;;;3.40;1.92;;;;;;;5.45;68.97;101893.44;2079191;28;20034;-71
2022/04/20 01:24:55;;;;;;;4.10;2.20;;;;;;;5.41;68.72;101890.75;2062181;28;20054;-71
2022/04/20 01:26:11;;;;;;;5.55;2.40;;;;;;;5.43;69.35;101894.31;2079673;28;20049;-70
2022/04/20 01:27:37;;;;;;;5.45;2.15;;;;;;;5.44;70.00;101890.81;2067522;28;20922;-71
2022/04/20 01:28:48;;;;;;;3.63;2.22;;;;;;;5.44;70.58;101886.38;2060914;28;20926;-71
2022/04/20 01:30:07;;;;;;;5.85;2.40;;;;;;;5.40;69.91;101888.94;2066727;28;21010;-71
2022/04/20 01:31:30;;;;;;;3.67;2.15;;;;;;;5.37;69.34;101884.50;2068117;28;20172;-73
2022/04/20 01:32:43;;;;;;;5.40;2.47;;;;;;;5.38;69.60;101878.31;2064969;28;20432;-72
2022/04/20 01:33:51;;;;;;;3.58;2.53;;;;;;;5.35;70.08;101886.25;2071967;28;20034;-71
2022/04/20 01:34:53;;;;;;;4.72;2.60;;;;;;;5.32;70.20;101886.19;2070536;28;43568;-71
2022/04/20 01:35:55;;;;;;;8.23;2.97;;;;;;;5.33;70.33;101878.25;2062692;28;20318;-70
2022/04/20 01:36:56;;;;;;;4.15;2.60;;;;;;;5.31;69.77;101880.00;2070085;28;42410;-70
2022/04/20 01:37:58;;;;;;;5.47;3.03;;;;;;;5.31;70.38;101885.31;2071187;28;20124;-70
2022/04/20 01:39:00;;;;;;;4.47;2.40;;;;;;;5.32;70.83;101886.19;2063338;28;20035;-70
2022/04/20 01:40:02;;;;;;;4.55;2.65;;;;;;;5.29;70.02;101887.06;2054701;28;20051;-70
2022/04/20 01:41:05;;;;;;;5.28;2.33;;;;;;;5.32;69.81;101879.13;2055282;28;20122;-70
2022/04/20 01:42:08;;;;;;;3.85;2.72;;;;;;;5.30;70.68;101877.34;2062991;28;20055;-72
2022/04/20 01:43:13;;;;;;;2.80;2.25;;;;;;;5.28;70.22;101877.31;2055763;28;20089;-72
2022/04/20 01:44:31;;;;;;;3.63;2.47;;;;;;;5.30;70.00;101882.63;2068107;28;20042;-71
2022/04/20 01:45:42;;;;;;;3.67;2.30;;;;;;;5.25;70.57;101879.91;2070474;28;20088;-70
2022/04/20 01:47:09;;;;;;;3.90;2.15;;;;;;;5.21;69.71;101872.78;2055153;28;20826;-71
2022/04/20 01:48:44;;;;;;;4.47;1.92;;;;;;;5.18;70.21;101872.72;2070924;28;20788;-70
2022/04/20 01:49:59;;;;;;;5.05;2.03;;;;;;;5.17;71.30;101876.28;2064702;28;20074;-71
2022/04/20 01:52:49;;;;;;;3.95;2.28;;;;;;;5.16;70.86;101875.34;2071993;28;20038;-71
2022/04/20 01:54:13;;;;;;;3.70;2.00;;;;;;;5.11;70.58;101876.16;2071633;28;20114;-71
2022/04/20 01:55:23;;;;;;;4.57;2.30;;;;;;;5.06;70.61;101881.41;2079106;28;20031;-73
2022/04/20 01:56:31;;;;;;;4.05;2.38;;;;;;;5.07;71.18;101879.66;2076629;28;20046;-71
2022/04/20 01:58:04;;;;;;;5.03;1.73;;;;;;;5.06;70.88;101880.50;2066473;28;20848;-71
2022/04/20 01:59:32;;;;;;;2.90;1.95;;;;;;;5.08;71.47;101882.31;2072228;28;20050;-71
2022/04/20 02:00:41;;;;;;;5.03;2.15;;;;;;;5.02;71.09;101876.03;2062815;28;20912;-70
2022/04/20 02:03:26;;;;;;;3.47;2.22;;;;;;;4.97;71.54;101874.22;2068276;28;20042;-71
2022/04/20 02:04:49;;;;;;;3.22;2.38;;;;;;;4.96;71.61;101872.41;2065226;28;20043;-71
2022/04/20 02:05:52;;;;;;;3.78;2.30;;;;;;;4.95;71.73;101881.25;2063245;28;20039;-70
2022/04/20 02:07:02;;;;;;;3.30;2.17;;;;;;;4.91;71.02;101874.09;2055683;28;20052;-70
2022/04/20 02:08:09;;;;;;;6.32;2.33;;;;;;;4.90;71.70;101880.28;2057829;28;20887;-70
2022/04/20 02:09:43;;;;;;;3.08;2.20;;;;;;;4.90;72.32;101879.38;2062861;28;20070;-70
2022/04/20 02:10:49;;;;;;;4.65;2.47;;;;;;;4.91;71.64;101881.16;2066753;28;20050;-70
2022/04/20 02:11:53;;;;;;;4.28;2.53;;;;;;;4.90;71.88;101877.63;2070751;28;21078;-69
2022/04/20 02:13:16;;;;;;;4.80;2.95;;;;;;;4.88;71.58;101884.69;2070990;28;20050;-70
2022/04/20 02:14:23;;;;;;;5.03;2.00;;;;;;;4.88;72.30;101878.47;2071556;28;21029;-70
2022/04/20 02:15:33;;;;;;;5.20;2.63;;;;;;;4.84;72.08;101880.19;2071104;28;20086;-70
2022/04/20 02:16:34;;;;;;;3.72;2.58;;;;;;;4.82;72.50;101884.56;2062945;28;20043;-70
2022/04/20 02:17:55;;;;;;;3.83;2.22;;;;;;;4.81;71.80;101880.16;2070973;28;20781;-71
2022/04/20 02:19:06;;;;;;;8.07;3.28;;;;;;;4.86;71.87;101880.19;2078109;28;20042;-70
2022/04/20 02:20:23;;;;;;;3.53;2.50;;;;;;;4.82;71.92;101883.69;2062719;28;20200;-71
2022/04/20 02:21:25;;;;;;;4.60;2.60;;;;;;;4.81;72.26;101887.19;2064521;28;20043;-71
2022/04/20 02:22:28;;;;;;;4.40;2.58;;;;;;;4.82;71.41;101881.91;2069507;28;44656;-70
2022/04/20 02:23:31;;;;;;;4.10;2.63;;;;;;;4.80;71.42;101885.44;2062389;28;20062;-70
2022/04/20 02:24:33;;;;;;;4.20;2.60;;;;;;;4.81;71.30;101887.19;2062285;28;20039;-70
2022/04/20 02:25:34;;;;;;;4.88;3.00;;;;;;;4.83;72.50;101883.72;2069412;28;44818;-71
2022/04/20 02:26:37;;;;;;;5.35;2.78;;;;;;;4.85;71.56;101879.31;2070624;28;20057;-70
2022/04/20 02:27:38;;;;;;;3.40;2.60;;;;;;;4.82;71.45;101884.56;2070586;28;20132;-70
2022/04/20 02:28:45;;;;;;;5.25;2.72;;;;;;;4.83;72.20;101886.38;2070152;28;44187;-71
2022/04/20 02:29:47;;;;;;;4.93;2.83;;;;;;;4.80;72.07;101875.69;2069450;28;46779;-70
2022/04/20 02:30:50;;;;;;;5.47;3.00;;;;;;;4.86;72.03;101875.78;2062959;28;20065;-70
2022/04/20 02:31:52;;;;;;;3.95;2.83;;;;;;;4.82;71.49;101879.25;2061796;28;43168;-71
2022/04/20 02:32:53;;;;;;;3.80;2.45;;;;;;;4.80;72.28;101881.00;2079420;28;48118;-71
2022/04/20 02:33:56;;;;;;;5.88;2.95;;;;;;;4.78;71.67;101883.63;2071455;28;20923;-71
2022/04/20 02:34:57;;;;;;;5.90;2.80;;;;;;;4.82;72.04;101886.34;2055496;28;30114;-70
2022/04/20 02:35:59;;;;;;;5.35;3.10;;;;;;;4.81;71.94;101887.19;2071386;28;31125;-70
2022/04/20 02:37:02;;;;;;;5.65;2.80;;;;;;;4.81;72.22;101885.47;2079051;28;44090;-71
2022/04/20 02:38:06;;;;;;;4.13;3.03;;;;;;;4.81;71.61;101882.81;2078814;28;45230;-71
2022/04/20 02:39:07;;;;;;;5.35;3.08;;;;;;;4.77;71.48;101886.25;2071155;28;40401;-71
2022/04/20 02:40:11;;;;;;;4.57;2.90;;;;;;;4.73;72.50;101887.06;2071257;28;45058;-71
2022/04/20 02:41:13;;;;;;;6.32;3.22;;;;;;;4.77;72.00;101886.25;2079415;28;44690;-71
2022/04/20 02:42:16;;;;;;;4.70;3.10;;;;;;;4.75;71.92;101888.88;2062807;28;41067;-70
2022/04/20 02:43:18;;;;;;;5.25;2.90;;;;;;;4.73;72.17;101887.06;2063129;28;44957;-70
2022/04/20 02:44:20;;;;;;;4.30;2.42;;;;;;;4.69;71.77;101883.47;2072372;28;20919;-70
2022/04/20 02:45:22;;;;;;;4.68;2.72;;;;;;;4.74;71.80;101888.88;2064135;28;36259;-72
2022/04/20 02:46:26;;;;;;;6.05;2.80;;;;;;;4.71;72.71;101881.75;2071917;28;20185;-71
2022/04/20 02:47:27;;;;;;;5.85;3.40;;;;;;;4.71;71.77;101881.75;2064178;28;32990;-70
2022/04/20 02:48:30;;;;;;;4.72;2.83;;;;;;;4.67;71.98;101887.88;2063889;28;20130;-70
2022/04/20 02:49:32;;;;;;;6.65;3.33;;;;;;;4.61;72.59;101881.56;2071862;28;26940;-70
2022/04/20 02:50:33;;;;;;;3.60;2.90;;;;;;;4.58;72.72;101879.78;2080159;28;20053;-70
2022/04/20 02:51:35;;;;;;;4.20;2.80;;;;;;;4.61;73.35;101881.56;2072076;28;20057;-70
2022/04/20 02:52:38;;;;;;;4.00;3.05;;;;;;;4.58;73.20;101887.72;2064373;28;20050;-70
2022/04/20 02:53:41;;;;;;;7.13;3.22;;;;;;;4.53;72.60;101882.31;2072095;28;20153;-71
2022/04/20 02:54:52;;;;;;;4.97;3.03;;;;;;;4.47;72.48;101892.84;2072188;28;20959;-70
2022/04/20 02:55:56;;;;;;;6.70;3.05;;;;;;;4.48;72.93;101888.44;2065366;28;20126;-71
2022/04/20 02:56:58;;;;;;;5.82;3.40;;;;;;;4.47;73.66;101894.56;2055858;28;20837;-70
2022/04/20 02:58:03;;;;;;;5.03;3.20;;;;;;;4.42;72.90;101889.22;2064408;28;20081;-71
2022/04/20 02:59:07;;;;;;;3.80;3.00;;;;;;;4.40;73.53;101891.84;2080155;28;20421;-70
2022/04/20 03:00:12;;;;;;;5.40;3.35;;;;;;;4.41;73.27;101890.06;2064090;28;20185;-70
2022/04/20 03:01:23;;;;;;;6.18;3.17;;;;;;;4.42;73.31;101886.56;2059318;28;20082;-70
2022/04/20 03:02:27;;;;;;;6.82;3.80;;;;;;;4.39;73.96;101891.81;2055528;28;20114;-70
2022/04/20 03:03:29;;;;;;;6.20;3.25;;;;;;;4.40;73.79;101890.94;2047536;28;20131;-70
2022/04/20 03:04:38;;;;;;;8.45;3.88;;;;;;;4.39;73.95;101884.72;2056795;28;20043;-70
2022/04/20 03:05:41;;;;;;;4.07;3.40;;;;;;;4.42;73.63;101883.03;2057264;28;20051;-70
2022/04/20 03:06:44;;;;;;;7.28;3.53;;;;;;;4.42;73.49;101880.38;2072094;28;20054;-71
2022/04/20 03:08:04;;;;;;;4.38;3.53;;;;;;;4.40;74.13;101890.94;2075020;28;20049;-71
2022/04/20 03:09:06;;;;;;;6.05;4.18;;;;;;;4.42;74.11;101883.91;2064006;28;20195;-70
2022/04/20 03:10:11;;;;;;;5.10;3.88;;;;;;;4.43;73.70;101888.31;2064861;28;20137;-70
2022/04/20 03:11:16;;;;;;;6.70;3.88;;;;;;;4.41;73.85;101892.72;2071841;28;20831;-71
2022/04/20 03:12:21;;;;;;;5.35;4.00;;;;;;;4.38;73.85;101888.28;2063953;28;20055;-70
2022/04/20 03:13:27;;;;;;;4.03;3.63;;;;;;;4.39;73.63;101889.16;2064814;28;20066;-70
2022/04/20 03:14:29;;;;;;;5.88;3.45;;;;;;;4.35;73.98;101892.63;2072066;28;20046;-70
2022/04/20 03:15:35;;;;;;;5.43;3.65;;;;;;;4.35;73.93;101898.81;2064645;28;20166;-70
2022/04/20 03:16:37;;;;;;;5.57;3.30;;;;;;;4.32;73.89;101889.91;2072375;28;20039;-71
2022/04/20 03:17:44;;;;;;;5.47;3.53;;;;;;;4.33;73.97;101897.00;2063832;28;21054;-71
2022/04/20 03:18:47;;;;;;;6.35;3.58;;;;;;;4.36;74.15;101894.38;2064971;28;20054;-71
2022/04/20 03:19:53;;;;;;;3.90;3.00;;;;;;;4.33;73.88;101891.72;2071967;28;20043;-70
2022/04/20 03:20:56;;;;;;;5.97;3.33;;;;;;;4.33;74.17;101891.72;2063899;28;20023;-70
2022/04/20 03:21:57;;;;;;;5.43;3.58;;;;;;;4.31;74.11;101890.78;2071341;28;20039;-70
2022/04/20 03:23:02;;;;;;;5.00;3.35;;;;;;;4.31;74.10;101896.97;2071523;28;20038;-70
2022/04/20 03:24:05;;;;;;;5.90;3.15;;;;;;;4.29;74.40;101898.72;2071673;28;25539;-71
2022/04/20 03:25:23;;;;;;;5.75;3.45;;;;;;;4.25;74.35;101901.25;2066002;28;20062;-71
2022/04/20 03:26:43;;;;;;;5.60;3.65;;;;;;;4.24;75.04;101903.03;2066447;28;20786;-71
2022/04/20 03:27:54;;;;;;;6.20;3.55;;;;;;;4.21;74.67;101897.66;2064981;28;20074;-70
2022/04/20 03:28:56;;;;;;;5.55;3.10;;;;;;;4.19;74.57;101900.28;2057007;28;20048;-71
2022/04/20 03:29:57;;;;;;;6.68;3.92;;;;;;;4.16;74.97;101901.97;2063284;28;21567;-70
2022/04/20 03:30:59;;;;;;;4.43;3.00;;;;;;;4.16;75.28;101908.19;2071346;28;44860;-71
2022/04/20 03:32:09;;;;;;;5.03;3.35;;;;;;;4.18;75.05;101906.47;2071056;28;20149;-70
2022/04/20 03:33:12;;;;;;;4.53;3.03;;;;;;;4.14;74.56;101909.91;2071745;28;20840;-71
2022/04/20 03:34:14;;;;;;;5.93;3.47;;;;;;;4.16;75.11;101908.19;2055354;28;20138;-71
2022/04/20 03:35:16;;;;;;;4.68;3.35;;;;;;;4.10;75.25;101902.75;2055648;28;20039;-71
2022/04/20 03:36:18;;;;;;;4.10;3.47;;;;;;;4.05;75.17;101898.25;2062502;28;46077;-71
2022/04/20 03:37:21;;;;;;;4.32;3.47;;;;;;;4.03;74.99;101907.91;2064398;28;20138;-71
2022/04/20 03:38:23;;;;;;;4.68;3.40;;;;;;;4.09;75.78;101902.72;2063679;28;32370;-71
2022/04/20 03:39:27;;;;;;;8.02;3.47;;;;;;;4.03;75.30;101911.44;2072198;28;20066;-71
2022/04/20 03:40:29;;;;;;;5.22;3.85;;;;;;;4.00;75.35;101904.34;2071191;28;39270;-71
2022/04/20 03:41:31;;;;;;;5.43;3.53;;;;;;;4.01;76.17;101907.88;2070598;28;45585;-71
2022/04/20 03:42:35;;;;;;;6.05;3.80;;;;;;;3.97;75.93;101906.06;2078812;28;45404;-71
2022/04/20 03:43:36;;;;;;;7.53;4.18;;;;;;;3.95;75.54;101902.47;2079547;28;21064;-71
2022/04/20 03:44:39;;;;;;;6.45;3.78;;;;;;;3.95;75.87;101899.84;2078453;28;44274;-71
2022/04/20 03:45:42;;;;;;;6.15;3.78;;;;;;;3.92;75.88;101900.66;2063221;28;43158;-71
2022/04/20 03:46:43;;;;;;;6.50;3.95;;;;;;;3.91;76.14;101895.31;2063264;28;45371;-71
2022/04/20 03:47:45;;;;;;;6.22;4.07;;;;;;;3.91;76.30;101908.56;2071691;28;42315;-71
2022/04/20 03:48:51;;;;;;;6.00;3.65;;;;;;;3.94;76.58;101908.63;2071526;28;20046;-71
2022/04/20 03:49:53;;;;;;;5.88;3.60;;;;;;;3.93;76.84;101898.88;2063588;28;39259;-71
2022/04/20 03:50:54;;;;;;;6.30;3.80;;;;;;;3.90;76.58;101899.72;2063386;28;20161;-71
2022/04/20 03:51:57;;;;;;;5.75;3.78;;;;;;;3.91;76.81;101900.59;2071505;28;20161;-71
2022/04/20 03:53:06;;;;;;;5.22;3.65;;;;;;;3.96;76.31;101898.94;2072707;28;20081;-71
2022/04/20 03:54:07;;;;;;;5.72;3.80;;;;;;;3.90;76.04;101898.84;2070290;28;45569;-70
2022/04/20 03:55:14;;;;;;;4.85;3.50;;;;;;;3.91;76.59;101892.66;2063817;28;20078;-71
2022/04/20 03:56:17;;;;;;;6.47;4.10;;;;;;;3.91;76.46;101905.91;2064628;28;20113;-71
2022/04/20 03:57:18;;;;;;;4.53;3.65;;;;;;;3.85;76.49;101896.09;2071737;28;20157;-71
2022/04/20 03:58:22;;;;;;;7.05;3.78;;;;;;;3.86;76.74;101902.28;2080077;28;20046;-71
2022/04/20 03:59:24;;;;;;;4.10;3.58;;;;;;;3.88;76.91;101897.91;2079491;28;20042;-71
2022/04/20 04:00:31;;;;;;;7.97;4.03;;;;;;;3.83;76.92;101898.69;2079723;28;20034;-71
2022/04/20 04:01:33;;;;;;;5.07;3.85;;;;;;;3.85;77.30;101897.84;2063170;28;20058;-71
2022/04/20 04:02:34;;;;;;;5.90;3.85;;;;;;;3.89;76.92;101902.34;2064246;28;28552;-71
2022/04/20 04:03:46;;;;;;;7.38;4.20;;;;;;;3.88;77.08;101898.81;2071250;28;20047;-71
2022/04/20 04:04:55;;;;;;;5.47;3.88;;;;;;;3.85;76.71;101904.03;2071514;28;20038;-70
2022/04/20 04:06:05;;;;;;;5.60;3.65;;;;;;;3.83;77.77;101900.47;2100261;23;20588;-64
2022/04/20 04:07:09;;;;;;;4.78;4.00;;;;;;;3.80;77.47;101903.03;2081098;28;20960;-64
2022/04/20 04:08:11;;;;;;;7.15;4.03;;;;;;;3.80;77.18;101903.97;2087265;28;45362;-63
2022/04/20 04:09:14;;;;;;;4.90;3.40;;;;;;;3.78;77.44;101888.88;2079607;28;20045;-64
2022/04/20 04:10:18;;;;;;;5.82;3.70;;;;;;;3.79;77.17;101899.50;2072012;28;20045;-64
2022/04/20 04:11:20;;;;;;;7.60;3.88;;;;;;;3.83;77.44;101906.66;2064414;28;20254;-63
2022/04/20 04:12:23;;;;;;;7.93;3.95;;;;;;;3.87;77.57;101904.06;2079259;28;36584;-64
2022/04/20 04:13:32;;;;;;;;;;;;;;;3.79;77.53;101907.47;2087415;28;20088;-64
2022/04/20 04:14:40;;;;;;;5.18;3.50;;;;;;;3.77;77.34;101903.00;2088526;28;20813;-64
2022/04/20 04:15:43;;;;;;;5.80;4.00;;;;;;;3.77;77.76;101906.53;2071072;28;20093;-64
2022/04/20 04:16:46;;;;;;;9.20;4.63;;;;;;;3.77;77.76;101903.88;2071965;28;20038;-64
2022/04/20 04:17:54;;;;;;;9.40;3.63;;;;;;;3.79;77.70;101910.09;2079362;28;20214;-64
2022/04/20 04:18:59;;;;;;;6.38;4.13;;;;;;;3.80;78.00;101906.59;2072815;28;20042;-64
2022/04/20 04:20:05;;;;;;;7.85;4.35;;;;;;;3.77;77.53;101900.34;2071202;28;20042;-64
2022/04/20 04:21:08;;;;;;;5.05;3.97;;;;;;;3.81;77.79;101904.84;2064093;28;20104;-64
2022/04/20 04:22:10;;;;;;;7.45;4.65;;;;;;;3.77;77.75;101906.53;2071212;28;20098;-64
2022/04/20 04:23:18;;;;;;;5.63;4.30;;;;;;;3.80;77.62;101911.00;2072362;28;20050;-64
2022/04/20 04:24:35;;;;;;;5.18;4.18;;;;;;;3.83;77.71;101914.59;2069205;28;20117;-64
2022/04/20 04:25:41;;;;;;;6.72;3.95;;;;;;;3.82;78.18;101907.53;2075052;28;20910;-64
2022/04/20 04:26:45;;;;;;;6.35;4.68;;;;;;;3.80;77.78;101917.19;2078403;28;20843;-64
2022/04/20 04:27:50;;;;;;;6.68;3.95;;;;;;;3.82;77.88;101919.84;2080202;28;20913;-64
2022/04/20 04:28:54;;;;;;;5.90;4.20;;;;;;;3.85;78.04;101922.56;2087421;28;20073;-64
2022/04/20 04:29:58;;;;;;;5.93;4.28;;;;;;;3.88;77.44;101920.00;2087742;28;20157;-64
2022/04/20 04:30:59;;;;;;;6.10;4.20;;;;;;;3.89;77.91;101926.19;2079658;28;20890;-64
2022/04/20 04:32:06;;;;;;;6.05;4.65;;;;;;;3.88;77.80;101919.13;2072044;28;20922;-64
2022/04/20 04:33:08;;;;;;;6.35;4.05;;;;;;;3.89;77.56;101923.53;2087941;28;20049;-64
2022/04/20 04:34:10;;;;;;;6.10;3.90;;;;;;;3.94;77.77;101924.53;2087432;28;20053;-64
2022/04/20 04:35:14;;;;;;;5.45;3.75;;;;;;;3.97;77.27;101920.19;2071488;28;20090;-64
2022/04/20 04:36:16;;;;;;;7.90;3.50;;;;;;;3.99;76.98;101929.06;2072898;28;20042;-64
2022/04/20 04:37:23;;;;;;;6.75;3.67;;;;;;;4.04;76.63;101920.28;2081353;28;20153;-64
2022/04/20 04:38:32;;;;;;;4.88;3.80;;;;;;;4.03;76.52;101922.06;2086709;28;20142;-65
2022/04/20 04:39:34;;;;;;;8.73;3.55;;;;;;;4.05;76.63;101925.63;2080250;28;20042;-63
2022/04/20 04:40:39;;;;;;;5.65;3.70;;;;;;;4.10;76.58;101929.25;2087447;28;20081;-64
2022/04/20 04:41:47;;;;;;;7.43;3.58;;;;;;;4.18;76.47;101919.72;2079729;28;20042;-64
2022/04/20 04:42:49;;;;;;;5.68;3.58;;;;;;;4.36;76.10;101928.84;2080562;28;20085;-64
2022/04/20 04:43:52;;;;;;;5.35;3.45;;;;;;;4.53;75.37;101910.63;2084427;28;20930;-64
2022/04/20 04:48:36;;;;;;;6.00;3.70;;;;;;;4.77;74.47;101918.09;2079797;28;20046;-63
2022/04/20 04:48:48;;;;;;;4.22;2.72;;;;;;;5.42;70.56;101914.69;2087372;28;20807;-63
2022/04/20 04:49:19;;;;;;;3.83;2.78;;;;;;;5.66;70.63;101919.41;2073965;28;35622;-64
2022/04/20 04:50:21;;;;;;;4.85;3.10;;;;;;;5.86;68.67;101908.16;2088159;28;20028;-63
2022/04/20 04:51:23;;;;;;;3.75;2.47;;;;;;;5.98;69.66;101911.00;2079489;28;20081;-63
2022/04/20 04:52:25;;;;;;;4.40;2.95;;;;;;;6.17;68.77;101911.19;2079614;28;20041;-63
2022/04/20 04:53:33;;;;;;;5.18;2.22;;;;;;;6.61;67.14;101911.63;2088181;28;20050;-63
2022/04/20 04:54:43;;;;;;;5.97;2.65;;;;;;;6.75;66.53;101910.84;2095810;28;20098;-63
2022/04/20 04:55:49;;;;;;;3.88;2.45;;;;;;;6.90;65.82;101907.44;2095669;28;20825;-63
2022/04/20 04:56:53;;;;;;;4.20;2.90;;;;;;;6.95;64.99;101916.38;2087721;28;20049;-63
2022/04/20 04:57:55;;;;;;;4.90;2.70;;;;;;;7.33;64.15;101910.41;2079632;28;20101;-63
2022/04/20 04:58:57;;;;;;;5.15;2.60;;;;;;;7.58;63.48;101907.00;2079354;28;20081;-63
2022/04/20 05:00:01;;;;;;;5.53;3.22;;;;;;;7.53;62.29;101914.06;2079946;28;20050;-63
2022/04/20 05:01:06;;;;;;;4.32;2.67;;;;;;;7.35;63.44;101909.53;2079867;28;20992;-63
2022/04/20 05:02:10;;;;;;;6.25;2.83;;;;;;;7.40;62.63;101912.22;2079501;28;20042;-62
2022/04/20 05:03:16;;;;;;;4.25;2.90;;;;;;;7.63;61.60;101913.25;2087496;28;20044;-63
2022/04/20 05:04:20;;;;;;;5.25;2.95;;;;;;;7.57;62.32;101910.56;2095699;28;20179;-63
2022/04/20 05:05:28;;;;;;;7.32;3.13;;;;;;;7.50;62.51;101911.41;2087161;28;20103;-63
2022/04/20 05:06:29;;;;;;;4.45;2.60;;;;;;;7.75;62.07;101908.84;2079678;28;20151;-63
2022/04/20 05:07:47;;;;;;;6.05;2.50;;;;;;;7.99;61.42;101908.94;2081319;28;20788;-62
2022/04/20 05:08:51;;;;;;;3.67;2.47;;;;;;;8.02;61.52;101905.38;2088072;28;20037;-63
2022/04/20 05:09:52;;;;;;;6.65;3.13;;;;;;;7.83;60.77;101912.44;2087336;28;20048;-63
2022/04/20 05:10:54;;;;;;;4.97;2.70;;;;;;;8.08;60.41;101908.09;2079692;28;20038;-63
2022/04/20 05:12:01;;;;;;;3.53;2.38;;;;;;;8.12;60.59;101908.97;2088187;28;20969;-62
2022/04/20 05:13:07;;;;;;;7.97;2.75;;;;;;;8.19;60.16;101910.78;2087202;28;20042;-63
2022/04/20 05:14:10;;;;;;;4.70;2.80;;;;;;;8.13;59.82;101905.41;2087639;28;20041;-63
2022/04/20 05:15:16;;;;;;;5.55;2.40;;;;;;;8.36;59.30;101908.13;2087836;28;20072;-63
2022/04/20 05:16:19;;;;;;;5.50;2.83;;;;;;;8.41;59.26;101901.03;2087623;28;21340;-63